sensor_id;sensor_type;location;lat;lon;timestamp;pressure;altitude;pressure_sealevel;temperature;humidity
47670;BME280;33408;52.062;11.722;2023-02-22T00:00:13;101278.69;;;9.61;100.00
47670;BME280;33408;52.062;11.722;2023-02-22T00:02:47;101267.44;;;9.61;100.00
47670;BME280;33408;52.062;11.722;2023-02-22T00:05:14;101275.22;;;9.56;100.00
47670;BME280;33408;52.062;11.722;2023-02-22T00:07:42;101276.09;;;9.57;100.00
47670;BME280;33408;52.062;11.722;2023-02-22T00:10:10;101271.00;;;9.44;100.00
47670;BME280;33408;52.062;11.722;2023-02-22T00:12:40;101281.34;;;9.41;100.00
47670;BME280;33408;52.062;11.722;2023-02-22T00:15:08;101279.72;;;9.25;100.00
47670;BME280;33408;52.062;11.722;2023-02-22T00:17:37;101278.78;;;9.32;100.00
47670;BME280;33408;52.062;11.722;2023-02-22T00:20:04;101277.97;;;9.21;100.00
47670;BME280;33408;52.062;11.722;2023-02-22T00:22:31;101286.63;;;9.17;100.00
47670;BME280;33408;52.062;11.722;2023-02-22T00:24:58;101283.19;;;9.18;100.00
47670;BME280;33408;52.062;11.722;2023-02-22T00:27:25;101276.28;;;9.15;100.00
47670;BME280;33408;52.062;11.722;2023-02-22T00:29:53;101278.88;;;9.18;100.00
47670;BME280;33408;52.062;11.722;2023-02-22T00:32:21;101283.19;;;9.18;100.00
47670;BME280;33408;52.062;11.722;2023-02-22T00:34:50;101271.97;;;9.19;100.00
47670;BME280;33408;52.062;11.722;2023-02-22T00:37:17;101280.56;;;9.22;100.00
47670;BME280;33408;52.062;11.722;2023-02-22T00:39:45;101278.00;;;9.19;100.00
47670;BME280;33408;52.062;11.722;2023-02-22T00:42:12;101270.28;;;9.15;100.00
47670;BME280;33408;52.062;11.722;2023-02-22T00:44:38;101276.28;;;9.17;100.00
47670;BME280;33408;52.062;11.722;2023-02-22T00:47:06;101272.81;;;9.19;100.00
47670;BME280;33408;52.062;11.722;2023-02-22T00:49:33;101275.41;;;9.21;100.00
47670;BME280;33408;52.062;11.722;2023-02-22T00:52:00;101273.69;;;9.20;100.00
47670;BME280;33408;52.062;11.722;2023-02-22T00:54:26;101264.19;;;9.25;100.00
47670;BME280;33408;52.062;11.722;2023-02-22T00:56:53;101277.97;;;9.27;100.00
47670;BME280;33408;52.062;11.722;2023-02-22T00:59:20;101273.69;;;9.26;100.00
47670;BME280;33408;52.062;11.722;2023-02-22T01:01:46;101275.38;;;9.27;100.00
47670;BME280;33408;52.062;11.722;2023-02-22T01:04:14;101271.13;;;9.18;100.00
47670;BME280;33408;52.062;11.722;2023-02-22T01:06:42;101259.03;;;9.20;100.00
47670;BME280;33408;52.062;11.722;2023-02-22T01:09:09;101259.00;;;9.25;100.00
47670;BME280;33408;52.062;11.722;2023-02-22T01:11:35;101265.94;;;9.20;100.00
47670;BME280;33408;52.062;11.722;2023-02-22T01:14:02;101268.53;;;9.13;100.00
47670;BME280;33408;52.062;11.722;2023-02-22T01:16:29;101260.78;;;9.13;100.00
47670;BME280;33408;52.062;11.722;2023-02-22T01:18:55;101261.69;;;9.05;100.00
47670;BME280;33408;52.062;11.722;2023-02-22T01:21:23;101262.53;;;9.11;100.00
47670;BME280;33408;52.062;11.722;2023-02-22T01:23:50;101260.78;;;9.12;100.00
47670;BME280;33408;52.062;11.722;2023-02-22T01:26:16;101255.63;;;9.10;100.00
47670;BME280;33408;52.062;11.722;2023-02-22T01:28:43;101261.63;;;9.12;100.00
47670;BME280;33408;52.062;11.722;2023-02-22T01:31:09;101258.19;;;9.13;100.00
47670;BME280;33408;52.062;11.722;2023-02-22T01:33:37;101235.75;;;9.20;100.00
47670;BME280;33408;52.062;11.722;2023-02-22T01:36:04;101254.78;;;9.05;100.00
47670;BME280;33408;52.062;11.722;2023-02-22T01:38:37;101252.19;;;9.11;100.00
47670;BME280;33408;52.062;11.722;2023-02-22T01:41:04;101246.13;;;9.08;100.00
47670;BME280;33408;52.062;11.722;2023-02-22T01:43:31;101257.38;;;9.01;100.00
47670;BME280;33408;52.062;11.722;2023-02-22T01:46:00;101248.72;;;9.06;100.00
47670;BME280;33408;52.062;11.722;2023-02-22T01:48:38;101247.88;;;9.09;100.00
47670;BME280;33408;52.062;11.722;2023-02-22T01:51:09;101249.59;;;9.08;100.00
47670;BME280;33408;52.062;11.722;2023-02-22T01:53:43;101247.88;;;9.09;100.00
47670;BME280;33408;52.062;11.722;2023-02-22T01:56:12;101247.03;;;9.05;100.00
47670;BME280;33408;52.062;11.722;2023-02-22T01:58:41;101253.06;;;9.04;100.00
47670;BME280;33408;52.062;11.722;2023-02-22T02:01:10;101253.94;;;8.99;100.00
47670;BME280;33408;52.062;11.722;2023-02-22T02:03:38;101246.19;;;8.96;100.00
47670;BME280;33408;52.062;11.722;2023-02-22T02:06:10;101253.97;;;8.88;100.00
47670;BME280;33408;52.062;11.722;2023-02-22T02:08:45;101245.34;;;8.93;100.00
47670;BME280;33408;52.062;11.722;2023-02-22T02:11:18;101246.25;;;8.79;100.00
47670;BME280;33408;52.062;11.722;2023-02-22T02:13:45;101247.97;;;8.76;100.00
47670;BME280;33408;52.062;11.722;2023-02-22T02:16:12;101247.13;;;8.71;100.00
47670;BME280;33408;52.062;11.722;2023-02-22T02:18:39;101242.81;;;8.69;100.00
47670;BME280;33408;52.062;11.722;2023-02-22T02:21:34;101244.56;;;8.65;100.00
47670;BME280;33408;52.062;11.722;2023-02-22T02:24:35;101244.56;;;8.65;100.00
47670;BME280;33408;52.062;11.722;2023-02-22T02:27:13;101234.22;;;8.57;100.00
47670;BME280;33408;52.062;11.722;2023-02-22T02:32:59;101224.75;;;8.58;100.00
47670;BME280;33408;52.062;11.722;2023-02-22T02:35:47;101229.06;;;8.61;100.00
47670;BME280;33408;52.062;11.722;2023-02-22T02:38:21;101223.91;;;8.56;100.00
47670;BME280;33408;52.062;11.722;2023-02-22T02:40:57;101219.56;;;8.58;100.00
47670;BME280;33408;52.062;11.722;2023-02-22T02:43:31;101218.72;;;8.51;100.00
47670;BME280;33408;52.062;11.722;2023-02-22T02:46:03;101223.06;;;8.46;100.00
47670;BME280;33408;52.062;11.722;2023-02-22T02:48:33;101217.03;;;8.46;100.00
47670;BME280;33408;52.062;11.722;2023-02-22T02:51:04;101217.88;;;8.40;100.00
47670;BME280;33408;52.062;11.722;2023-02-22T02:53:35;101211.84;;;8.36;100.00
47670;BME280;33408;52.062;11.722;2023-02-22T02:56:02;101211.84;;;8.32;100.00
47670;BME280;33408;52.062;11.722;2023-02-22T02:58:29;101212.69;;;8.40;100.00
47670;BME280;33408;52.062;11.722;2023-02-22T03:00:59;101208.41;;;8.33;100.00
47670;BME280;33408;52.062;11.722;2023-02-22T03:06:46;101199.81;;;8.17;100.00
47670;BME280;33408;52.062;11.722;2023-02-22T03:09:26;101198.09;;;8.16;100.00
47670;BME280;33408;52.062;11.722;2023-02-22T03:12:07;101194.66;;;8.23;100.00
47670;BME280;33408;52.062;11.722;2023-02-22T03:14:43;101197.25;;;8.17;100.00
47670;BME280;33408;52.062;11.722;2023-02-22T03:17:20;101192.94;;;8.27;100.00
47670;BME280;33408;52.062;11.722;2023-02-22T03:19:55;101192.91;;;8.34;100.00
47670;BME280;33408;52.062;11.722;2023-02-22T03:22:25;101197.19;;;8.35;100.00
47670;BME280;33408;52.062;11.722;2023-02-22T03:24:55;101192.06;;;8.31;100.00
47670;BME280;33408;52.062;11.722;2023-02-22T03:27:27;101194.63;;;8.37;100.00
47670;BME280;33408;52.062;11.722;2023-02-22T03:29:58;101187.75;;;8.14;100.00
47670;BME280;33408;52.062;11.722;2023-02-22T03:32:29;101189.50;;;7.81;100.00
47670;BME280;33408;52.062;11.722;2023-02-22T03:35:02;101190.38;;;7.94;100.00
47670;BME280;33408;52.062;11.722;2023-02-22T03:37:34;101188.63;;;7.93;100.00
47670;BME280;33408;52.062;11.722;2023-02-22T03:40:06;101194.69;;;7.95;100.00
47670;BME280;33408;52.062;11.722;2023-02-22T03:42:39;101192.97;;;7.97;100.00
47670;BME280;33408;52.062;11.722;2023-02-22T03:45:10;101186.91;;;7.98;100.00
47670;BME280;33408;52.062;11.722;2023-02-22T03:47:42;101188.63;;;7.90;100.00
47670;BME280;33408;52.062;11.722;2023-02-22T03:50:14;101188.63;;;7.84;100.00
47670;BME280;33408;52.062;11.722;2023-02-22T03:52:43;101185.19;;;7.82;100.00
47670;BME280;33408;52.062;11.722;2023-02-22T03:55:12;101191.22;;;7.73;100.00
47670;BME280;33408;52.062;11.722;2023-02-22T03:57:43;101192.06;;;7.71;100.00
47670;BME280;33408;52.062;11.722;2023-02-22T04:00:14;101191.22;;;7.67;100.00
47670;BME280;33408;52.062;11.722;2023-02-22T04:02:42;101190.34;;;7.59;100.00
47670;BME280;33408;52.062;11.722;2023-02-22T04:05:10;101193.78;;;7.64;100.00
47670;BME280;33408;52.062;11.722;2023-02-22T04:07:38;101189.50;;;7.51;100.00
47670;BME280;33408;52.062;11.722;2023-02-22T04:10:05;101194.66;;;7.58;100.00
47670;BME280;33408;52.062;11.722;2023-02-22T04:12:33;101192.09;;;7.58;100.00
47670;BME280;33408;52.062;11.722;2023-02-22T04:15:00;101188.59;;;7.50;100.00
47670;BME280;33408;52.062;11.722;2023-02-22T04:17:26;101195.50;;;7.56;100.00
47670;BME280;33408;52.062;11.722;2023-02-22T04:19:53;101191.19;;;7.58;100.00
47670;BME280;33408;52.062;11.722;2023-02-22T04:22:21;101194.66;;;7.63;100.00
47670;BME280;33408;52.062;11.722;2023-02-22T04:24:48;101191.25;;;7.75;100.00
47670;BME280;33408;52.062;11.722;2023-02-22T04:27:15;101192.94;;;7.82;100.00
47670;BME280;33408;52.062;11.722;2023-02-22T04:29:41;101198.13;;;7.88;100.00
47670;BME280;33408;52.062;11.722;2023-02-22T04:32:08;101188.63;;;7.84;100.00
47670;BME280;33408;52.062;11.722;2023-02-22T04:34:34;101193.81;;;7.81;100.00
47670;BME280;33408;52.062;11.722;2023-02-22T04:37:01;101190.38;;;7.85;100.00
47670;BME280;33408;52.062;11.722;2023-02-22T04:39:29;101193.81;;;7.79;100.00
47670;BME280;33408;52.062;11.722;2023-02-22T04:41:55;101196.41;;;7.81;100.00
47670;BME280;33408;52.062;11.722;2023-02-22T04:44:22;101192.94;;;7.83;100.00
47670;BME280;33408;52.062;11.722;2023-02-22T04:46:48;101191.22;;;7.84;100.00
47670;BME280;33408;52.062;11.722;2023-02-22T04:49:15;101197.28;;;7.92;100.00
47670;BME280;33408;52.062;11.722;2023-02-22T04:51:42;101194.69;;;7.95;100.00
47670;BME280;33408;52.062;11.722;2023-02-22T04:54:09;101193.81;;;7.90;100.00
47670;BME280;33408;52.062;11.722;2023-02-22T04:56:38;101188.66;;;7.78;100.00
47670;BME280;33408;52.062;11.722;2023-02-22T04:59:05;101189.53;;;7.86;100.00
47670;BME280;33408;52.062;11.722;2023-02-22T05:01:31;101192.94;;;7.90;100.00
47670;BME280;33408;52.062;11.722;2023-02-22T05:04:00;101189.50;;;7.97;100.00
47670;BME280;33408;52.062;11.722;2023-02-22T05:06:27;101188.66;;;7.98;100.00
47670;BME280;33408;52.062;11.722;2023-02-22T05:08:54;101186.06;;;7.95;100.00
47670;BME280;33408;52.062;11.722;2023-02-22T05:11:20;101183.47;;;7.92;100.00
47670;BME280;33408;52.062;11.722;2023-02-22T05:13:48;101178.31;;;7.95;100.00
47670;BME280;33408;52.062;11.722;2023-02-22T05:16:15;101180.06;;;7.94;100.00
47670;BME280;33408;52.062;11.722;2023-02-22T05:18:42;101182.63;;;7.91;100.00
47670;BME280;33408;52.062;11.722;2023-02-22T05:21:09;101178.31;;;7.89;100.00
47670;BME280;33408;52.062;11.722;2023-02-22T05:23:35;101176.63;;;7.94;100.00
47670;BME280;33408;52.062;11.722;2023-02-22T05:26:02;101174.03;;;7.84;100.00
47670;BME280;33408;52.062;11.722;2023-02-22T05:28:31;101175.72;;;7.90;100.00
47670;BME280;33408;52.062;11.722;2023-02-22T05:30:59;101185.22;;;7.87;100.00
47670;BME280;33408;52.062;11.722;2023-02-22T05:33:25;101171.44;;;7.92;100.00
47670;BME280;33408;52.062;11.722;2023-02-22T05:35:52;101182.63;;;7.90;100.00
47670;BME280;33408;52.062;11.722;2023-02-22T05:38:20;101176.59;;;7.83;100.00
47670;BME280;33408;52.062;11.722;2023-02-22T05:40:47;101176.59;;;7.71;100.00
47670;BME280;33408;52.062;11.722;2023-02-22T05:43:14;101181.78;;;7.83;100.00
47670;BME280;33408;52.062;11.722;2023-02-22T05:45:41;101177.47;;;7.87;100.00
47670;BME280;33408;52.062;11.722;2023-02-22T05:48:09;101179.19;;;7.72;100.00
47670;BME280;33408;52.062;11.722;2023-02-22T05:50:37;101178.31;;;7.65;100.00
47670;BME280;33408;52.062;11.722;2023-02-22T05:53:03;101181.75;;;7.69;100.00
47670;BME280;33408;52.062;11.722;2023-02-22T05:55:30;101178.31;;;7.64;100.00
47670;BME280;33408;52.062;11.722;2023-02-22T05:57:57;101185.22;;;7.70;100.00
47670;BME280;33408;52.062;11.722;2023-02-22T06:00:27;101174.88;;;7.62;100.00
47670;BME280;33408;52.062;11.722;2023-02-22T06:02:56;101178.31;;;7.58;100.00
47670;BME280;33408;52.062;11.722;2023-02-22T06:05:26;101176.59;;;7.61;100.00
47670;BME280;33408;52.062;11.722;2023-02-22T06:07:54;101181.75;;;7.58;100.00
47670;BME280;33408;52.062;11.722;2023-02-22T06:10:21;101184.31;;;7.64;100.00
47670;BME280;33408;52.062;11.722;2023-02-22T06:12:48;101187.78;;;7.63;100.00
47670;BME280;33408;52.062;11.722;2023-02-22T06:15:16;101190.34;;;7.74;100.00
47670;BME280;33408;52.062;11.722;2023-02-22T06:17:43;101192.97;;;7.71;100.00
47670;BME280;33408;52.062;11.722;2023-02-22T06:20:11;101189.50;;;7.66;100.00
47670;BME280;33408;52.062;11.722;2023-02-22T06:22:39;101190.38;;;7.71;100.00
47670;BME280;33408;52.062;11.722;2023-02-22T06:25:07;101189.47;;;7.61;100.00
47670;BME280;33408;52.062;11.722;2023-02-22T06:27:34;101198.09;;;7.63;100.00
47670;BME280;33408;52.062;11.722;2023-02-22T06:30:01;101197.25;;;7.71;100.00
47670;BME280;33408;52.062;11.722;2023-02-22T06:32:28;101198.09;;;7.74;100.00
47670;BME280;33408;52.062;11.722;2023-02-22T06:34:54;101192.94;;;7.77;100.00
47670;BME280;33408;52.062;11.722;2023-02-22T06:37:21;101189.50;;;7.83;100.00
47670;BME280;33408;52.062;11.722;2023-02-22T06:39:49;101198.09;;;7.87;100.00
47670;BME280;33408;52.062;11.722;2023-02-22T06:42:16;101195.53;;;7.79;100.00
47670;BME280;33408;52.062;11.722;2023-02-22T06:44:42;101199.81;;;7.75;100.00
47670;BME280;33408;52.062;11.722;2023-02-22T06:47:09;101192.09;;;7.75;100.00
47670;BME280;33408;52.062;11.722;2023-02-22T06:49:35;101199.84;;;7.92;100.00
47670;BME280;33408;52.062;11.722;2023-02-22T06:52:03;101195.53;;;7.80;100.00
47670;BME280;33408;52.062;11.722;2023-02-22T06:54:30;101194.66;;;7.78;100.00
47670;BME280;33408;52.062;11.722;2023-02-22T06:56:58;101198.97;;;7.75;100.00
47670;BME280;33408;52.062;11.722;2023-02-22T06:59:24;101198.97;;;7.89;100.00
47670;BME280;33408;52.062;11.722;2023-02-22T07:01:52;101199.84;;;7.88;100.00
47670;BME280;33408;52.062;11.722;2023-02-22T07:04:19;101192.06;;;7.72;100.00
47670;BME280;33408;52.062;11.722;2023-02-22T07:06:46;101194.66;;;7.74;100.00
47670;BME280;33408;52.062;11.722;2023-02-22T07:09:13;101198.13;;;7.68;100.00
47670;BME280;33408;52.062;11.722;2023-02-22T07:11:40;101190.38;;;7.65;100.00
47670;BME280;33408;52.062;11.722;2023-02-22T07:14:08;101199.81;;;8.00;100.00
47670;BME280;33408;52.062;11.722;2023-02-22T07:16:35;101202.41;;;7.81;100.00
47670;BME280;33408;52.062;11.722;2023-02-22T07:19:01;101204.13;;;8.07;100.00
47670;BME280;33408;52.062;11.722;2023-02-22T07:21:28;101206.72;;;8.06;100.00
47670;BME280;33408;52.062;11.722;2023-02-22T07:23:56;101204.13;;;8.13;100.00
47670;BME280;33408;52.062;11.722;2023-02-22T07:26:23;101209.31;;;8.06;100.00
47670;BME280;33408;52.062;11.722;2023-02-22T07:28:51;101204.13;;;7.96;100.00
47670;BME280;33408;52.062;11.722;2023-02-22T07:31:19;101209.31;;;8.07;100.00
47670;BME280;33408;52.062;11.722;2023-02-22T07:33:46;101213.59;;;7.94;100.00
47670;BME280;33408;52.062;11.722;2023-02-22T07:36:13;101212.72;;;8.00;100.00
47670;BME280;33408;52.062;11.722;2023-02-22T07:38:42;101218.78;;;8.05;100.00
47670;BME280;33408;52.062;11.722;2023-02-22T07:41:08;101214.47;;;8.02;100.00
47670;BME280;33408;52.062;11.722;2023-02-22T07:43:35;101213.59;;;8.08;100.00
47670;BME280;33408;52.062;11.722;2023-02-22T07:46:02;101217.91;;;8.06;100.00
47670;BME280;33408;52.062;11.722;2023-02-22T07:48:30;101213.59;;;8.25;100.00
47670;BME280;33408;52.062;11.722;2023-02-22T07:50:57;101211.88;;;8.16;100.00
47670;BME280;33408;52.062;11.722;2023-02-22T07:53:25;101209.31;;;8.15;100.00
47670;BME280;33408;52.062;11.722;2023-02-22T07:55:54;101212.75;;;8.20;100.00
47670;BME280;33408;52.062;11.722;2023-02-22T07:58:27;101214.44;;;8.21;100.00
47670;BME280;33408;52.062;11.722;2023-02-22T08:00:54;101214.44;;;8.30;100.00
47670;BME280;33408;52.062;11.722;2023-02-22T08:03:23;101199.81;;;8.20;100.00
47670;BME280;33408;52.062;11.722;2023-02-22T08:05:53;101205.84;;;8.28;100.00
47670;BME280;33408;52.062;11.722;2023-02-22T08:08:21;101200.66;;;8.37;100.00
47670;BME280;33408;52.062;11.722;2023-02-22T08:10:49;101206.69;;;8.33;100.00
47670;BME280;33408;52.062;11.722;2023-02-22T08:13:17;101203.25;;;8.40;100.00
47670;BME280;33408;52.062;11.722;2023-02-22T08:15:43;101202.38;;;8.46;100.00
47670;BME280;33408;52.062;11.722;2023-02-22T08:18:13;101211.88;;;8.53;100.00
47670;BME280;33408;52.062;11.722;2023-02-22T08:20:42;101198.94;;;8.52;100.00
47670;BME280;33408;52.062;11.722;2023-02-22T08:23:11;101193.72;;;8.66;100.00
47670;BME280;33408;52.062;11.722;2023-02-22T08:25:38;101192.03;;;8.60;100.00
47670;BME280;33408;52.062;11.722;2023-02-22T08:28:08;101196.31;;;8.58;100.00
47670;BME280;33408;52.062;11.722;2023-02-22T08:30:36;101192.88;;;8.57;100.00
47670;BME280;33408;52.062;11.722;2023-02-22T08:33:03;101184.28;;;8.58;100.00
47670;BME280;33408;52.062;11.722;2023-02-22T08:35:31;101183.41;;;8.60;100.00
47670;BME280;33408;52.062;11.722;2023-02-22T08:38:00;101185.97;;;8.67;100.00
47670;BME280;33408;52.062;11.722;2023-02-22T08:40:30;101176.47;;;8.71;100.00
47670;BME280;33408;52.062;11.722;2023-02-22T08:42:57;101172.19;;;8.73;100.00
47670;BME280;33408;52.062;11.722;2023-02-22T08:45:26;101167.84;;;8.81;100.00
47670;BME280;33408;52.062;11.722;2023-02-22T08:47:53;101171.25;;;8.85;100.00
47670;BME280;33408;52.062;11.722;2023-02-22T08:50:25;101166.03;;;9.00;100.00
47670;BME280;33408;52.062;11.722;2023-02-22T08:52:54;101167.78;;;8.93;100.00
47670;BME280;33408;52.062;11.722;2023-02-22T08:55:22;101159.16;;;8.90;100.00
47670;BME280;33408;52.062;11.722;2023-02-22T08:57:50;101147.88;;;9.06;100.00
47670;BME280;33408;52.062;11.722;2023-02-22T09:00:17;101152.06;;;9.29;100.00
47670;BME280;33408;52.062;11.722;2023-02-22T09:02:45;101154.50;;;9.52;100.00
47670;BME280;33408;52.062;11.722;2023-02-22T09:05:11;101151.13;;;9.39;100.00
47670;BME280;33408;52.062;11.722;2023-02-22T09:07:40;101151.88;;;9.57;100.00
47670;BME280;33408;52.062;11.722;2023-02-22T09:10:07;101147.56;;;9.56;100.00
47670;BME280;33408;52.062;11.722;2023-02-22T09:12:34;101149.13;;;9.74;100.00
47670;BME280;33408;52.062;11.722;2023-02-22T09:15:02;101143.88;;;9.83;100.00
47670;BME280;33408;52.062;11.722;2023-02-22T09:17:29;101147.44;;;9.74;100.00
47670;BME280;33408;52.062;11.722;2023-02-22T09:19:56;101150.81;;;9.82;100.00
47670;BME280;33408;52.062;11.722;2023-02-22T09:22:22;101147.16;;;10.03;100.00
47670;BME280;33408;52.062;11.722;2023-02-22T09:24:51;101144.69;;;9.90;100.00
47670;BME280;33408;52.062;11.722;2023-02-22T09:27:18;101139.56;;;9.82;100.00
47670;BME280;33408;52.062;11.722;2023-02-22T09:29:47;101141.16;;;10.01;100.00
47670;BME280;33408;52.062;11.722;2023-02-22T09:32:15;101142.56;;;10.30;100.00
47670;BME280;33408;52.062;11.722;2023-02-22T09:34:42;101135.81;;;10.15;100.00
47670;BME280;33408;52.062;11.722;2023-02-22T09:37:10;101133.06;;;10.35;100.00
47670;BME280;33408;52.062;11.722;2023-02-22T09:39:37;101138.78;;;10.62;100.00
47670;BME280;33408;52.062;11.722;2023-02-22T09:42:08;101139.56;;;10.67;100.00
47670;BME280;33408;52.062;11.722;2023-02-22T09:44:42;101135.09;;;10.80;100.00
47670;BME280;33408;52.062;11.722;2023-02-22T09:47:16;101128.31;;;10.70;100.00
47670;BME280;33408;52.062;11.722;2023-02-22T09:49:52;101121.13;;;10.90;100.00
47670;BME280;33408;52.062;11.722;2023-02-22T09:52:24;101124.72;;;10.80;100.00
47670;BME280;33408;52.062;11.722;2023-02-22T09:54:55;101128.13;;;10.85;100.00
47670;BME280;33408;52.062;11.722;2023-02-22T09:57:33;101116.06;;;10.81;100.00
47670;BME280;33408;52.062;11.722;2023-02-22T10:00:03;101113.66;;;10.66;100.00
47670;BME280;33408;52.062;11.722;2023-02-22T10:02:44;101103.03;;;10.86;100.00
47670;BME280;33408;52.062;11.722;2023-02-22T10:05:15;101102.09;;;10.91;100.00
47670;BME280;33408;52.062;11.722;2023-02-22T10:07:50;101107.66;;;11.26;100.00
47670;BME280;33408;52.062;11.722;2023-02-22T10:10:25;101101.75;;;11.16;100.00
47670;BME280;33408;52.062;11.722;2023-02-22T10:12:59;101107.06;;;11.07;100.00
47670;BME280;33408;52.062;11.722;2023-02-22T10:15:35;101099.31;;;11.04;100.00
47670;BME280;33408;52.062;11.722;2023-02-22T10:21:38;101098.09;;;11.29;100.00
47670;BME280;33408;52.062;11.722;2023-02-22T10:24:15;101093.13;;;11.14;100.00
47670;BME280;33408;52.062;11.722;2023-02-22T10:26:48;101092.59;;;11.48;100.00
47670;BME280;33408;52.062;11.722;2023-02-22T10:29:18;101086.41;;;11.55;100.00
47670;BME280;33408;52.062;11.722;2023-02-22T10:31:51;101083.38;;;11.80;100.00
47670;BME280;33408;52.062;11.722;2023-02-22T10:34:22;101082.50;;;11.82;100.00
47670;BME280;33408;52.062;11.722;2023-02-22T10:36:56;101080.47;;;12.00;100.00
47670;BME280;33408;52.062;11.722;2023-02-22T10:39:27;101076.38;;;11.85;100.00
47670;BME280;33408;52.062;11.722;2023-02-22T10:41:57;101076.72;;;11.66;100.00
47670;BME280;33408;52.062;11.722;2023-02-22T10:44:30;101069.53;;;11.81;100.00
47670;BME280;33408;52.062;11.722;2023-02-22T10:46:57;101070.09;;;11.98;100.00
47670;BME280;33408;52.062;11.722;2023-02-22T10:49:32;101067.19;;;12.14;100.00
47670;BME280;33408;52.062;11.722;2023-02-22T10:52:03;101056.78;;;12.15;100.00
47670;BME280;33408;52.062;11.722;2023-02-22T10:54:32;101060.47;;;12.03;100.00
47670;BME280;33408;52.062;11.722;2023-02-22T10:57:01;101061.25;;;12.09;100.00
47670;BME280;33408;52.062;11.722;2023-02-22T10:59:31;101054.16;;;12.17;100.00
47670;BME280;33408;52.062;11.722;2023-02-22T11:01:59;101054.50;;;12.42;100.00
47670;BME280;33408;52.062;11.722;2023-02-22T11:04:26;101051.88;;;12.44;100.00
47670;BME280;33408;52.062;11.722;2023-02-22T11:07:15;101046.13;;;12.28;100.00
47670;BME280;33408;52.062;11.722;2023-02-22T11:09:49;101050.22;;;12.39;100.00
47670;BME280;33408;52.062;11.722;2023-02-22T11:12:18;101042.16;;;12.52;100.00
47670;BME280;33408;52.062;11.722;2023-02-22T11:14:45;101043.50;;;12.29;100.00
47670;BME280;33408;52.062;11.722;2023-02-22T11:17:17;101035.19;;;12.54;100.00
47670;BME280;33408;52.062;11.722;2023-02-22T11:19:45;101037.03;;;12.49;100.00
47670;BME280;33408;52.062;11.722;2023-02-22T11:22:21;101040.81;;;12.74;100.00
47670;BME280;33408;52.062;11.722;2023-02-22T11:24:51;101036.56;;;12.70;100.00
47670;BME280;33408;52.062;11.722;2023-02-22T11:27:36;101025.78;;;12.48;100.00
47670;BME280;33408;52.062;11.722;2023-02-22T11:30:10;101026.44;;;12.58;100.00
47670;BME280;33408;52.062;11.722;2023-02-22T11:32:43;101028.88;;;12.66;100.00
47670;BME280;33408;52.062;11.722;2023-02-22T11:35:19;101025.53;;;12.61;100.00
47670;BME280;33408;52.062;11.722;2023-02-22T11:37:53;101025.03;;;12.82;100.00
47670;BME280;33408;52.062;11.722;2023-02-22T11:40:34;101016.09;;;12.92;100.00
47670;BME280;33408;52.062;11.722;2023-02-22T11:43:06;101026.38;;;12.99;100.00
47670;BME280;33408;52.062;11.722;2023-02-22T11:45:36;101020.47;;;12.92;100.00
47670;BME280;33408;52.062;11.722;2023-02-22T11:48:05;101021.38;;;13.27;100.00
47670;BME280;33408;52.062;11.722;2023-02-22T11:50:39;101009.19;;;13.27;100.00
47670;BME280;33408;52.062;11.722;2023-02-22T11:53:26;101010.69;;;13.02;100.00
47670;BME280;33408;52.062;11.722;2023-02-22T11:56:09;101018.09;;;12.81;100.00
47670;BME280;33408;52.062;11.722;2023-02-22T11:58:43;101014.16;;;12.65;100.00
47670;BME280;33408;52.062;11.722;2023-02-22T12:01:21;101004.09;;;12.87;100.00
47670;BME280;33408;52.062;11.722;2023-02-22T12:04:23;101003.78;;;12.99;100.00
47670;BME280;33408;52.062;11.722;2023-02-22T12:07:01;101006.59;;;12.91;100.00
47670;BME280;33408;52.062;11.722;2023-02-22T12:09:42;101004.25;;;12.81;100.00
47670;BME280;33408;52.062;11.722;2023-02-22T12:12:17;101005.19;;;12.76;100.00
47670;BME280;33408;52.062;11.722;2023-02-22T12:14:55;101000.91;;;12.75;100.00
47670;BME280;33408;52.062;11.722;2023-02-22T12:17:35;100995.56;;;12.82;100.00
47670;BME280;33408;52.062;11.722;2023-02-22T12:20:14;100992.75;;;12.89;100.00
47670;BME280;33408;52.062;11.722;2023-02-22T12:22:52;100989.59;;;12.76;100.00
47670;BME280;33408;52.062;11.722;2023-02-22T12:25:24;100995.25;;;12.94;100.00
47670;BME280;33408;52.062;11.722;2023-02-22T12:27:56;100990.63;;;13.43;100.00
47670;BME280;33408;52.062;11.722;2023-02-22T12:30:26;100986.31;;;13.73;100.00
47670;BME280;33408;52.062;11.722;2023-02-22T12:32:58;100985.59;;;13.68;100.00
47670;BME280;33408;52.062;11.722;2023-02-22T12:35:26;100989.78;;;13.41;100.00
47670;BME280;33408;52.062;11.722;2023-02-22T12:38:02;100991.41;;;13.45;100.00
47670;BME280;33408;52.062;11.722;2023-02-22T12:40:34;100988.75;;;13.48;100.00
47670;BME280;33408;52.062;11.722;2023-02-22T12:43:11;100989.91;;;13.69;100.00
47670;BME280;33408;52.062;11.722;2023-02-22T12:45:44;100992.25;;;13.45;100.00
47670;BME280;33408;52.062;11.722;2023-02-22T12:48:23;100985.66;;;13.65;100.00
47670;BME280;33408;52.062;11.722;2023-02-22T12:50:57;100981.66;;;13.84;100.00
47670;BME280;33408;52.062;11.722;2023-02-22T12:53:29;100985.91;;;13.57;100.00
47670;BME280;33408;52.062;11.722;2023-02-22T12:56:09;100985.31;;;13.79;100.00
47670;BME280;33408;52.062;11.722;2023-02-22T12:58:45;100977.03;;;13.63;100.00
47670;BME280;33408;52.062;11.722;2023-02-22T13:01:16;100972.03;;;13.55;100.00